Time;durP1;ratioP1;P1;durP2;ratioP2;P2;SDS_P1;SDS_P2;PMS_P1;PMS_P2;Temp;Humidity;BMP_temperature;BMP_pressure;BME280_temperature;BME280_humidity;BME280_pressure;Samples;Min_cycle;Max_cycle;Signal;HPM_P1;HPM_P2
2022/11/18 00:01:22;;;;;;;21.60;20.30;;;;;;;12.35;61.73;99355.56;5048982;28;20116;-70
2022/11/18 00:03:49;;;;;;;20.63;19.50;;;;;;;12.34;62.00;99360.16;5048153;28;20021;-70
2022/11/18 00:06:20;;;;;;;21.55;20.35;;;;;;;12.34;61.74;99359.34;5031210;28;20429;-70
2022/11/18 00:08:46;;;;;;;21.90;20.60;;;;;;;12.33;62.00;99357.75;5036184;28;20033;-71
2022/11/18 00:16:42;;;;;;;20.75;19.65;;;;;;;12.28;61.96;99364.03;5048359;28;20171;-70
2022/11/18 00:19:07;;;;;;;21.35;20.10;;;;;;;12.29;61.85;99362.13;5050692;28;20120;-70
2022/11/18 00:21:32;;;;;;;21.83;20.73;;;;;;;12.28;62.26;99365.94;5052821;28;20052;-71
2022/11/18 00:23:58;;;;;;;20.55;19.38;;;;;;;12.27;61.91;99373.25;5046602;28;20084;-70
2022/11/18 00:26:23;;;;;;;21.27;19.98;;;;;;;12.27;61.80;99377.84;5034840;28;20044;-70
2022/11/18 00:28:48;;;;;;;21.67;20.58;;;;;;;12.26;61.83;99374.31;5043700;28;20040;-71
2022/11/18 00:31:14;;;;;;;22.42;21.08;;;;;;;12.26;62.05;99370.81;5037624;28;20069;-71
2022/11/18 00:33:40;;;;;;;20.02;18.73;;;;;;;12.26;61.98;99377.03;5043183;28;20037;-71
2022/11/18 00:36:11;;;;;;;20.90;19.60;;;;;;;12.25;61.92;99380.03;5048380;28;20091;-70
2022/11/18 00:38:37;;;;;;;20.30;19.20;;;;;;;12.24;62.01;99381.13;5035180;28;20042;-70
2022/11/18 00:41:16;;;;;;;21.15;19.98;;;;;;;12.23;61.94;99385.72;5035758;28;20036;-71
2022/11/18 00:43:42;;;;;;;20.90;19.60;;;;;;;12.23;61.76;99387.63;5047460;28;20048;-71
2022/11/18 00:46:09;;;;;;;20.63;19.42;;;;;;;12.22;61.92;99392.25;5055004;28;20033;-70
2022/11/18 00:48:36;;;;;;;21.13;19.73;;;;;;;12.21;62.15;99395.25;5037846;28;20025;-70
2022/11/18 00:51:13;;;;;;;20.48;19.38;;;;;;;12.20;61.71;99407.97;5035075;28;20029;-70
2022/11/18 00:53:38;;;;;;;20.95;19.85;;;;;;;12.19;61.79;99402.84;5045784;28;20432;-71
2022/11/18 00:56:04;;;;;;;20.65;19.45;;;;;;;12.18;61.98;99404.72;5041652;28;20030;-71
2022/11/18 00:58:30;;;;;;;22.23;21.02;;;;;;;12.18;62.06;99418.28;5041485;28;20565;-70
2022/11/18 01:00:55;;;;;;;20.00;18.90;;;;;;;12.18;61.82;99418.28;5042274;28;20124;-70
2022/11/18 01:03:21;;;;;;;21.92;20.63;;;;;;;12.17;61.75;99427.50;5040475;28;20029;-70
2022/11/18 01:05:47;;;;;;;20.65;19.55;;;;;;;12.17;61.95;99423.97;5046048;28;20036;-71
2022/11/18 01:08:12;;;;;;;19.40;18.30;;;;;;;12.16;62.01;99427.78;5035531;28;20033;-70
2022/11/18 01:10:39;;;;;;;22.20;20.90;;;;;;;12.15;62.10;99431.59;5034663;28;20038;-71
2022/11/18 01:13:18;;;;;;;21.02;19.92;;;;;;;12.15;62.09;99435.09;5034688;28;20048;-71
2022/11/18 01:15:46;;;;;;;20.77;19.55;;;;;;;12.15;62.00;99428.88;5054378;28;20036;-71
2022/11/18 01:18:12;;;;;;;19.83;18.55;;;;;;;12.12;62.01;99436.47;5034819;28;20025;-71
2022/11/18 01:20:37;;;;;;;20.17;19.08;;;;;;;12.10;61.87;99441.34;5034494;28;20022;-71
2022/11/18 01:23:03;;;;;;;22.05;20.50;;;;;;;12.12;61.96;99449.19;5033264;28;20480;-71
2022/11/18 01:25:29;;;;;;;22.13;20.83;;;;;;;12.11;62.20;99452.97;5038524;28;20087;-70
2022/11/18 01:27:55;;;;;;;20.20;19.15;;;;;;;12.09;61.74;99449.75;5052822;28;20029;-70
2022/11/18 01:30:20;;;;;;;21.40;20.10;;;;;;;12.09;61.91;99453.25;5051862;28;20461;-70
2022/11/18 01:32:46;;;;;;;19.75;18.65;;;;;;;12.08;61.84;99454.34;5053581;28;20491;-70
2022/11/18 01:35:11;;;;;;;20.92;19.83;;;;;;;12.07;61.89;99447.34;5052959;28;20033;-71
2022/11/18 01:37:37;;;;;;;21.02;19.92;;;;;;;12.07;61.83;99451.91;5052463;28;20067;-71
2022/11/18 01:40:07;;;;;;;20.15;19.15;;;;;;;12.07;62.10;99457.34;5033900;28;20382;-71
2022/11/18 01:42:33;;;;;;;21.80;20.60;;;;;;;12.05;61.81;99454.13;5033682;28;20036;-71
2022/11/18 01:45:13;;;;;;;20.38;19.38;;;;;;;12.04;61.93;99464.13;5038839;28;20041;-71
2022/11/18 01:47:46;;;;;;;20.08;19.02;;;;;;;12.04;62.04;99469.53;5045200;28;20061;-71
2022/11/18 01:50:14;;;;;;;20.70;19.67;;;;;;;12.04;61.89;99463.31;5033991;28;20115;-71
2022/11/18 01:52:40;;;;;;;20.85;19.75;;;;;;;12.03;61.97;99467.94;5033610;28;20067;-71
2022/11/18 01:55:21;;;;;;;19.98;18.75;;;;;;;12.02;61.91;99474.44;5037140;28;20041;-70
2022/11/18 01:57:50;;;;;;;20.85;19.55;;;;;;;12.03;61.97;99475.25;5044872;28;20505;-70
2022/11/18 02:00:16;;;;;;;20.17;19.02;;;;;;;12.01;62.21;99470.09;5033654;28;20029;-71
2022/11/18 02:02:41;;;;;;;20.65;19.55;;;;;;;12.01;61.94;99480.13;5042445;28;20029;-70
2022/11/18 02:05:09;;;;;;;21.27;20.08;;;;;;;12.00;62.07;99490.16;5033505;28;20029;-71
2022/11/18 02:07:37;;;;;;;21.17;19.77;;;;;;;11.99;61.82;99482.31;5039650;28;20032;-71
2022/11/18 02:10:06;;;;;;;20.27;19.17;;;;;;;11.98;62.02;99486.91;5035036;28;20021;-71
2022/11/18 02:12:32;;;;;;;21.13;19.88;;;;;;;11.98;62.12;99495.03;5033163;28;20029;-70
2022/11/18 02:14:59;;;;;;;19.85;18.85;;;;;;;11.98;61.89;99497.75;5033482;28;20047;-71
2022/11/18 02:18:01;;;;;;;20.23;19.02;;;;;;;11.97;61.92;99498.84;5047509;28;20128;-71
2022/11/18 02:20:38;;;;;;;21.67;20.30;;;;;;;11.96;61.81;99502.63;5032692;28;20029;-70
2022/11/18 02:23:12;;;;;;;20.77;19.70;;;;;;;11.96;62.18;99508.03;5033031;28;20397;-70
2022/11/18 02:25:40;;;;;;;20.85;19.52;;;;;;;11.95;61.88;99513.75;5032863;28;20033;-71
2022/11/18 02:28:32;;;;;;;21.17;20.08;;;;;;;11.95;61.94;99511.03;5043421;28;20076;-70
2022/11/18 02:31:45;;;;;;;20.05;18.75;;;;;;;11.95;62.03;99519.97;5037207;28;20061;-71
2022/11/18 02:34:44;;;;;;;20.42;19.23;;;;;;;11.93;61.88;99516.72;4986658;28;20122;-71
2022/11/18 02:37:18;;;;;;;19.77;18.67;;;;;;;11.93;61.87;99518.63;4990183;28;20474;-70
2022/11/18 02:39:52;;;;;;;19.55;18.55;;;;;;;11.91;61.77;99517.00;5040093;28;20846;-71
2022/11/18 02:42:19;;;;;;;20.65;19.55;;;;;;;11.91;61.90;99517.00;5051969;28;20028;-71
2022/11/18 02:44:50;;;;;;;20.15;18.95;;;;;;;11.92;61.93;99520.53;5051480;28;20069;-70
2022/11/18 02:47:17;;;;;;;20.63;19.30;;;;;;;11.91;62.10;99518.91;5051026;28;20035;-69
2022/11/18 02:49:48;;;;;;;22.45;21.15;;;;;;;11.91;61.86;99527.00;5051988;28;20032;-69
2022/11/18 02:52:16;;;;;;;20.02;18.92;;;;;;;11.93;61.90;99526.75;5033049;28;20029;-70
2022/11/18 02:54:44;;;;;;;22.08;20.77;;;;;;;11.90;61.86;99525.41;5031896;28;20436;-69
2022/11/18 02:57:12;;;;;;;20.63;19.42;;;;;;;11.91;62.01;99527.00;5031392;28;20389;-69
2022/11/18 02:59:37;;;;;;;23.27;21.98;;;;;;;11.91;62.17;99533.22;5048463;28;20029;-69
2022/11/18 03:02:02;;;;;;;21.92;20.63;;;;;;;11.91;61.93;99529.72;5050178;28;20032;-70
2022/11/18 03:04:29;;;;;;;20.13;19.00;;;;;;;11.91;61.93;99535.13;5051578;28;20091;-70
2022/11/18 03:07:12;;;;;;;20.40;19.10;;;;;;;11.90;62.02;99531.63;5052124;28;20112;-70
2022/11/18 03:09:45;;;;;;;21.13;19.83;;;;;;;11.90;61.79;99538.94;5047568;28;20039;-69
2022/11/18 03:12:50;;;;;;;19.80;18.80;;;;;;;11.90;62.06;99539.75;5040980;28;20390;-70
2022/11/18 03:15:42;;;;;;;19.88;18.77;;;;;;;11.90;61.78;99544.34;5046609;28;20382;-70
2022/11/18 03:18:32;;;;;;;20.95;19.83;;;;;;;11.89;62.31;99545.44;5002496;28;20045;-70
2022/11/18 03:21:31;;;;;;;20.75;19.55;;;;;;;11.89;61.93;99558.94;5041734;28;20123;-69
2022/11/18 03:24:22;;;;;;;20.23;19.13;;;;;;;11.87;62.01;99558.44;5032117;28;20026;-69
2022/11/18 03:26:52;;;;;;;20.52;19.42;;;;;;;11.86;61.91;99560.31;5031811;28;20068;-70
2022/11/18 03:29:27;;;;;;;21.13;19.60;;;;;;;11.87;62.02;99561.16;5040075;28;20048;-70
2022/11/18 03:32:02;;;;;;;20.27;19.17;;;;;;;11.87;62.05;99574.69;5049474;28;20041;-70
2022/11/18 03:34:33;;;;;;;19.80;18.70;;;;;;;11.87;62.07;99574.69;5052535;28;20021;-70
2022/11/18 03:37:01;;;;;;;20.70;19.50;;;;;;;11.86;61.96;99568.44;5051027;28;20492;-69
2022/11/18 03:39:30;;;;;;;20.15;19.08;;;;;;;11.86;61.91;99573.84;5066832;28;20036;-70
2022/11/18 03:42:05;;;;;;;20.92;19.83;;;;;;;11.86;61.83;99573.84;5038323;28;20509;-70
2022/11/18 03:44:35;;;;;;;20.20;19.10;;;;;;;11.86;61.88;99575.72;5032237;28;20485;-69
2022/11/18 03:47:24;;;;;;;19.45;18.38;;;;;;;11.86;62.09;99586.56;5032162;28;20033;-69
2022/11/18 03:49:55;;;;;;;22.05;20.63;;;;;;;11.85;61.98;99585.75;5038003;28;20037;-70
2022/11/18 03:52:25;;;;;;;19.42;18.38;;;;;;;11.85;62.11;99593.88;5037204;28;20120;-69
2022/11/18 03:54:54;;;;;;;21.67;20.27;;;;;;;11.86;61.90;99591.97;5035509;28;20033;-69
2022/11/18 03:57:26;;;;;;;20.13;19.13;;;;;;;11.85;61.96;99587.66;5035556;28;20091;-70
2022/11/18 03:59:58;;;;;;;20.77;19.40;;;;;;;11.85;61.82;99595.75;5039704;28;20029;-70
2022/11/18 04:02:27;;;;;;;20.00;18.90;;;;;;;11.86;61.90;99602.78;5045329;28;20041;-70
2022/11/18 04:04:56;;;;;;;19.45;18.45;;;;;;;11.84;61.86;99607.66;5035516;28;20491;-70
2022/11/18 04:07:54;;;;;;;19.40;18.40;;;;;;;11.84;62.06;99607.66;5034677;28;20022;-70
2022/11/18 04:10:26;;;;;;;19.50;18.23;;;;;;;11.83;62.00;99606.06;5029159;28;20048;-70
2022/11/18 04:13:03;;;;;;;22.15;20.95;;;;;;;11.82;62.20;99607.16;5052933;28;20353;-70
2022/11/18 04:15:30;;;;;;;22.10;20.80;;;;;;;11.82;61.98;99610.66;5054155;28;20362;-70
2022/11/18 04:17:56;;;;;;;19.52;18.52;;;;;;;11.82;62.12;99618.78;5054792;28;20380;-70
2022/11/18 04:20:22;;;;;;;20.65;19.50;;;;;;;11.82;62.09;99620.69;5052516;28;20033;-70
2022/11/18 04:22:48;;;;;;;22.35;20.83;;;;;;;11.81;61.92;99629.88;5053012;28;20108;-71
2022/11/18 04:25:13;;;;;;;20.75;19.65;;;;;;;11.81;61.91;99633.38;5034368;28;20061;-71
2022/11/18 04:27:39;;;;;;;21.92;20.73;;;;;;;11.82;62.13;99637.72;5055065;28;20396;-71
2022/11/18 04:30:05;;;;;;;19.23;18.23;;;;;;;11.81;62.04;99632.56;5069667;28;20039;-71
2022/11/18 04:32:31;;;;;;;19.27;18.17;;;;;;;11.81;61.83;99637.97;5049217;28;20076;-70
2022/11/18 04:34:57;;;;;;;23.38;22.00;;;;;;;11.81;62.14;99643.41;5034989;28;20112;-71
2022/11/18 04:37:22;;;;;;;20.48;19.45;;;;;;;11.80;62.27;99648.00;5035280;28;20103;-70
2022/11/18 04:39:47;;;;;;;21.85;20.63;;;;;;;11.80;61.83;99645.31;5034536;28;20041;-70
2022/11/18 04:42:13;;;;;;;20.75;19.45;;;;;;;11.79;62.07;99642.84;5044550;28;20064;-71
2022/11/18 04:44:38;;;;;;;20.83;19.63;;;;;;;11.79;61.95;99659.09;5052367;28;20037;-70
2022/11/18 04:47:05;;;;;;;19.10;18.10;;;;;;;11.79;61.96;99656.38;5044490;28;20060;-71
2022/11/18 04:49:31;;;;;;;19.98;18.90;;;;;;;11.78;62.06;99655.59;5034669;28;20128;-70
2022/11/18 04:51:57;;;;;;;21.85;20.60;;;;;;;11.78;61.85;99661.00;5039541;28;20033;-70
2022/11/18 04:54:24;;;;;;;18.85;17.75;;;;;;;11.78;61.96;99665.59;5052003;28;20040;-71
2022/11/18 04:56:50;;;;;;;20.60;19.38;;;;;;;11.77;62.18;99666.66;5041544;28;20033;-71
2022/11/18 04:59:21;;;;;;;20.40;19.40;;;;;;;11.77;62.13;99675.63;5035088;28;20401;-71
2022/11/18 05:01:48;;;;;;;20.90;19.60;;;;;;;11.77;61.83;99675.63;5035032;28;20032;-70
2022/11/18 05:04:16;;;;;;;19.73;18.63;;;;;;;11.75;61.98;99675.09;5049990;28;20034;-70
2022/11/18 05:06:42;;;;;;;20.80;19.50;;;;;;;11.74;62.01;99678.84;5042032;28;20041;-71
2022/11/18 05:09:08;;;;;;;19.67;18.48;;;;;;;11.74;62.00;99676.16;5034654;28;20033;-70
2022/11/18 05:14:17;;;;;;;20.20;19.10;;;;;;;11.72;61.95;99683.75;5046482;28;20079;-70
2022/11/18 05:16:43;;;;;;;20.55;19.27;;;;;;;11.72;61.99;99685.63;5053070;28;20428;-70
2022/11/18 05:19:09;;;;;;;19.48;18.48;;;;;;;11.71;62.00;99684.81;5034217;28;20142;-70
2022/11/18 05:21:35;;;;;;;19.85;18.75;;;;;;;11.70;62.02;99685.91;5034471;28;20553;-70
2022/11/18 05:24:02;;;;;;;20.92;19.80;;;;;;;11.69;62.09;99687.81;5035306;28;20029;-70
2022/11/18 05:26:27;;;;;;;20.50;19.35;;;;;;;11.69;61.71;99695.94;5043089;28;20052;-70
2022/11/18 05:28:53;;;;;;;22.73;21.42;;;;;;;11.69;61.88;99689.69;5033932;28;20033;-70
2022/11/18 05:31:18;;;;;;;20.50;19.30;;;;;;;11.69;62.00;99695.09;5033838;28;20040;-71
2022/11/18 05:33:44;;;;;;;22.42;21.13;;;;;;;11.69;61.82;99700.50;5040369;28;20091;-70
2022/11/18 05:36:13;;;;;;;20.45;19.40;;;;;;;11.68;61.89;99696.19;5051998;28;20099;-71
2022/11/18 05:38:39;;;;;;;21.63;20.40;;;;;;;11.67;61.59;99700.00;5038342;28;20105;-71
2022/11/18 05:41:05;;;;;;;22.02;20.73;;;;;;;11.66;62.25;99699.16;5033693;28;20477;-71
2022/11/18 05:43:31;;;;;;;20.92;19.60;;;;;;;11.65;62.15;99708.38;5034263;28;20033;-71
2022/11/18 05:45:58;;;;;;;21.02;19.83;;;;;;;11.65;61.94;99711.09;5046762;28;20107;-70
2022/11/18 05:48:24;;;;;;;20.92;19.83;;;;;;;11.64;61.80;99714.88;5046460;28;20033;-70
2022/11/18 05:50:52;;;;;;;20.45;19.35;;;;;;;11.63;62.10;99709.75;5033542;28;20034;-71
2022/11/18 05:53:19;;;;;;;20.87;19.67;;;;;;;11.62;61.78;99722.47;5033966;28;20072;-69
2022/11/18 05:55:44;;;;;;;21.58;20.10;;;;;;;11.62;61.88;99722.47;5037943;28;20284;-69
2022/11/18 05:58:10;;;;;;;19.92;18.92;;;;;;;11.63;61.86;99736.78;5037909;28;20120;-72
2022/11/18 06:00:35;;;;;;;21.17;19.90;;;;;;;11.62;61.75;99732.47;5033691;28;20481;-70
2022/11/18 06:03:05;;;;;;;21.50;20.10;;;;;;;11.60;61.92;99737.34;5051741;28;20139;-69
2022/11/18 06:05:30;;;;;;;19.13;18.13;;;;;;;11.60;61.91;99738.16;5048743;28;20462;-70
2022/11/18 06:07:56;;;;;;;21.23;19.92;;;;;;;11.59;61.97;99730.28;5047884;28;20043;-70
2022/11/18 06:10:28;;;;;;;19.88;18.88;;;;;;;11.58;61.98;99736.81;5048863;28;20043;-70
2022/11/18 06:12:58;;;;;;;19.55;18.42;;;;;;;11.58;61.92;99744.91;5041597;28;20032;-70
2022/11/18 06:15:29;;;;;;;20.40;19.20;;;;;;;11.56;61.93;99745.19;5044751;28;20037;-69
2022/11/18 06:17:59;;;;;;;20.10;18.95;;;;;;;11.57;61.90;99751.41;5040707;28;20135;-69
2022/11/18 06:20:25;;;;;;;20.02;18.92;;;;;;;11.55;61.95;99757.09;5052445;28;20039;-71
2022/11/18 06:22:54;;;;;;;19.15;18.15;;;;;;;11.55;61.94;99761.69;5033293;28;20041;-70
2022/11/18 06:25:20;;;;;;;21.77;20.33;;;;;;;11.54;61.86;99760.06;5036728;28;20511;-70
2022/11/18 06:27:46;;;;;;;20.05;18.98;;;;;;;11.53;62.02;99759.25;5041417;28;20041;-69
2022/11/18 06:30:12;;;;;;;21.80;20.27;;;;;;;11.52;61.76;99768.47;5035244;28;20070;-69
2022/11/18 06:32:38;;;;;;;20.10;18.70;;;;;;;11.52;61.69;99770.38;5033209;28;20042;-70
2022/11/18 06:35:04;;;;;;;22.30;20.95;;;;;;;11.51;61.98;99774.94;5032986;28;20037;-70
2022/11/18 06:37:29;;;;;;;20.42;19.33;;;;;;;11.51;61.83;99782.25;5039993;28;20053;-69
2022/11/18 06:39:54;;;;;;;18.98;17.92;;;;;;;11.50;61.90;99781.44;5039758;28;20128;-73
2022/11/18 06:45:04;;;;;;;20.95;19.75;;;;;;;11.47;61.70;99796.31;5051246;28;20047;-69
2022/11/18 06:47:30;;;;;;;19.63;18.63;;;;;;;11.46;61.90;99801.97;5046835;28;20033;-69
2022/11/18 06:49:55;;;;;;;21.45;20.17;;;;;;;11.45;61.80;99809.28;5050407;28;20733;-69
2022/11/18 06:52:22;;;;;;;19.95;18.85;;;;;;;11.45;62.00;99808.50;5049290;28;20052;-70
2022/11/18 06:54:47;;;;;;;19.50;18.40;;;;;;;11.45;61.84;99819.31;5032590;28;20057;-69
2022/11/18 06:57:12;;;;;;;21.92;20.63;;;;;;;11.43;61.87;99814.16;5038539;28;20096;-70
2022/11/18 06:59:38;;;;;;;21.00;19.60;;;;;;;11.43;61.81;99821.47;5032887;28;20462;-70
2022/11/18 07:02:03;;;;;;;21.33;19.92;;;;;;;11.42;61.74;99828.78;5045763;28;20118;-70
2022/11/18 07:04:29;;;;;;;22.20;20.92;;;;;;;11.42;61.75;99830.66;5032360;28;20413;-71
2022/11/18 07:06:54;;;;;;;19.60;18.50;;;;;;;11.41;62.14;99826.31;5034230;28;20029;-70
2022/11/18 07:09:19;;;;;;;20.08;18.98;;;;;;;11.41;61.85;99839.84;5032106;28;20461;-70
2022/11/18 07:11:45;;;;;;;21.08;19.77;;;;;;;11.40;61.80;99835.53;5040250;28;20039;-70
2022/11/18 07:14:12;;;;;;;21.50;20.15;;;;;;;11.39;61.87;99836.59;5039888;28;20044;-71
2022/11/18 07:16:37;;;;;;;20.73;19.52;;;;;;;11.38;61.94;99841.19;5032123;28;20057;-72
2022/11/18 07:19:09;;;;;;;22.02;20.83;;;;;;;11.38;61.83;99845.81;5043247;28;20064;-71
2022/11/18 07:21:34;;;;;;;20.13;18.90;;;;;;;11.37;61.79;99855.00;5040169;28;20025;-70
2022/11/18 07:23:59;;;;;;;20.52;19.40;;;;;;;11.36;61.85;99854.16;5039136;28;20074;-71
2022/11/18 07:26:25;;;;;;;20.80;19.65;;;;;;;11.36;61.80;99851.47;5032102;28;20030;-71
2022/11/18 07:28:50;;;;;;;21.05;19.92;;;;;;;11.35;61.90;99847.16;5038444;28;20132;-71
2022/11/18 07:31:18;;;;;;;20.85;19.55;;;;;;;11.33;61.84;99854.72;5044503;28;20041;-71
2022/11/18 07:33:45;;;;;;;19.50;18.40;;;;;;;11.33;61.86;99854.72;5043282;28;20030;-71
2022/11/18 07:36:19;;;;;;;22.00;20.60;;;;;;;11.32;61.83;99858.50;5031658;28;20303;-70
2022/11/18 07:38:45;;;;;;;19.42;18.33;;;;;;;11.31;61.77;99858.78;5047620;28;20116;-70
2022/11/18 07:41:16;;;;;;;22.17;20.73;;;;;;;11.31;61.96;99864.19;5041895;28;20059;-70
2022/11/18 07:43:42;;;;;;;20.35;19.30;;;;;;;11.30;61.86;99860.66;5041781;28;20472;-69
2022/11/18 07:46:18;;;;;;;20.05;18.88;;;;;;;11.30;61.80;99870.69;5031605;28;20033;-71
2022/11/18 07:48:44;;;;;;;19.50;18.40;;;;;;;11.29;61.65;99874.44;5032013;28;20149;-70
2022/11/18 07:51:11;;;;;;;21.75;20.40;;;;;;;11.27;61.74;99866.63;5039638;28;20074;-70
2022/11/18 07:53:36;;;;;;;20.90;19.70;;;;;;;11.27;61.61;99880.13;5046474;28;20042;-70
2022/11/18 07:56:03;;;;;;;19.77;18.67;;;;;;;11.26;61.69;99882.03;5032006;28;20041;-70
2022/11/18 07:58:29;;;;;;;21.50;20.02;;;;;;;11.26;61.83;99892.00;5031720;28;20478;-70
2022/11/18 08:00:54;;;;;;;19.63;18.52;;;;;;;11.25;61.85;99899.31;5032404;28;20169;-71
2022/11/18 08:03:27;;;;;;;21.20;19.98;;;;;;;11.24;61.80;99897.69;5033874;28;20033;-69
2022/11/18 08:06:03;;;;;;;19.27;18.27;;;;;;;11.25;61.77;99918.25;5042510;28;20037;-69
2022/11/18 08:08:28;;;;;;;19.50;18.33;;;;;;;11.23;61.70;99914.97;5031630;28;20147;-72
2022/11/18 08:10:59;;;;;;;19.70;18.60;;;;;;;11.23;61.93;99916.88;5035475;28;20131;-70
2022/11/18 08:13:25;;;;;;;21.02;19.73;;;;;;;11.22;61.65;99913.38;5042603;28;20030;-70
2022/11/18 08:15:51;;;;;;;19.25;18.05;;;;;;;11.23;61.72;99919.59;5036039;28;20053;-70
2022/11/18 08:18:16;;;;;;;21.58;20.23;;;;;;;11.22;61.79;99926.88;5031497;28;20029;-70
2022/11/18 08:20:43;;;;;;;21.20;19.75;;;;;;;11.21;61.81;99927.97;5043977;28;20052;-70
2022/11/18 08:23:09;;;;;;;19.30;18.30;;;;;;;11.21;61.86;99932.56;5034151;28;20048;-72
2022/11/18 08:25:34;;;;;;;19.42;18.00;;;;;;;11.20;61.74;99933.63;5049608;28;20041;-70
2022/11/18 08:27:59;;;;;;;19.30;18.20;;;;;;;11.19;61.74;99935.53;5049961;28;20033;-70
2022/11/18 08:30:25;;;;;;;21.77;19.98;;;;;;;11.19;61.81;99935.53;5050132;28;20043;-70
2022/11/18 08:32:50;;;;;;;20.67;19.50;;;;;;;11.19;61.67;99943.66;5050433;28;20487;-70
2022/11/18 08:35:15;;;;;;;20.70;19.40;;;;;;;11.18;61.66;99942.00;5037522;28;20040;-70
2022/11/18 08:37:41;;;;;;;21.23;20.13;;;;;;;11.18;61.77;99943.91;5049690;28;20049;-70
2022/11/18 08:40:07;;;;;;;20.85;19.55;;;;;;;11.17;61.85;99948.50;5052591;28;20029;-70
2022/11/18 08:42:32;;;;;;;20.00;18.83;;;;;;;11.17;61.69;99953.91;5050721;28;20078;-70
2022/11/18 08:44:57;;;;;;;19.67;18.58;;;;;;;11.16;61.76;99946.06;5054327;28;20128;-70
2022/11/18 08:47:23;;;;;;;20.10;18.80;;;;;;;11.16;61.77;99949.59;5049523;28;20034;-70
2022/11/18 08:49:48;;;;;;;18.90;17.90;;;;;;;11.15;61.70;99961.47;5033643;28;20419;-70
2022/11/18 08:52:13;;;;;;;20.23;18.73;;;;;;;11.15;61.74;99955.25;5034404;28;20080;-70
2022/11/18 08:54:39;;;;;;;19.73;18.40;;;;;;;11.15;61.79;99955.25;5039839;28;20053;-70
2022/11/18 08:57:04;;;;;;;19.70;18.60;;;;;;;11.15;61.78;99956.06;5045940;28;20037;-70
2022/11/18 08:59:31;;;;;;;20.45;19.05;;;;;;;11.14;61.71;99959.84;5051915;28;20083;-70
2022/11/18 09:01:56;;;;;;;20.92;19.83;;;;;;;11.13;61.82;99960.09;5055605;28;20044;-70
2022/11/18 09:04:21;;;;;;;20.55;19.25;;;;;;;11.13;61.90;99968.22;5062858;28;20484;-70
2022/11/18 09:06:47;;;;;;;20.08;18.98;;;;;;;11.13;61.80;99966.31;5059261;28;20075;-70
2022/11/18 09:09:12;;;;;;;19.73;18.40;;;;;;;11.13;61.98;99973.63;5054867;28;20037;-70
2022/11/18 09:11:38;;;;;;;20.70;19.40;;;;;;;11.12;61.68;99969.31;5053714;28;20484;-70
2022/11/18 09:14:04;;;;;;;20.42;19.10;;;;;;;11.12;61.90;99974.72;5052273;28;20436;-70
2022/11/18 09:16:31;;;;;;;21.75;20.40;;;;;;;11.11;61.66;99976.56;5053329;28;20539;-72
2022/11/18 09:18:57;;;;;;;20.20;18.95;;;;;;;11.12;61.90;99972.00;5041851;28;20025;-70
2022/11/18 09:21:24;;;;;;;22.20;20.60;;;;;;;11.13;61.57;99984.44;5033537;28;20371;-70
2022/11/18 09:23:49;;;;;;;19.38;18.27;;;;;;;11.11;61.81;99979.28;5038329;28;20033;-70
2022/11/18 09:26:18;;;;;;;19.02;18.02;;;;;;;11.10;61.85;99991.19;5064269;28;20388;-70
2022/11/18 09:28:43;;;;;;;19.88;18.45;;;;;;;11.11;61.67;99987.38;5048817;28;20516;-70
2022/11/18 09:31:14;;;;;;;20.38;19.27;;;;;;;11.10;61.85;99988.47;5034241;28;20042;-70
2022/11/18 09:33:40;;;;;;;20.20;19.10;;;;;;;11.10;61.90;99990.38;5046446;28;20029;-70
2022/11/18 09:36:15;;;;;;;18.35;17.35;;;;;;;11.10;61.78;99999.28;5041970;28;20112;-69
2022/11/18 09:38:41;;;;;;;20.50;19.40;;;;;;;11.10;61.89;99990.38;5040582;28;20044;-70
2022/11/18 09:41:09;;;;;;;20.30;18.85;;;;;;;11.10;61.89;99996.59;5043123;28;20029;-69
2022/11/18 09:43:59;;;;;;;20.15;18.92;;;;;;;11.09;61.86;100003.06;5033358;28;20060;-70
2022/11/18 09:46:42;;;;;;;21.30;19.83;;;;;;;11.07;61.80;100005.22;5047735;28;20036;-69
2022/11/18 09:49:17;;;;;;;19.45;18.35;;;;;;;11.07;61.81;100007.94;5046775;28;20025;-70
2022/11/18 09:51:48;;;;;;;22.17;20.70;;;;;;;11.08;61.79;100017.66;5040912;28;20036;-70
2022/11/18 09:54:22;;;;;;;20.52;19.38;;;;;;;11.08;61.86;100023.06;5032402;28;20104;-69
2022/11/18 09:56:50;;;;;;;19.55;18.38;;;;;;;11.07;61.80;100029.56;5050109;28;20175;-70
2022/11/18 09:59:19;;;;;;;20.30;19.13;;;;;;;11.08;61.78;100043.88;5034851;28;20029;-70
2022/11/18 10:01:47;;;;;;;20.77;19.58;;;;;;;11.07;61.97;100034.97;5050683;28;20033;-70
2022/11/18 10:04:18;;;;;;;19.10;17.88;;;;;;;11.08;61.94;100058.19;5051939;28;20040;-69
2022/11/18 10:06:45;;;;;;;20.00;18.80;;;;;;;11.08;61.67;100047.38;5044585;28;20029;-70
2022/11/18 10:09:32;;;;;;;20.45;19.13;;;;;;;11.09;61.45;100046.31;5032170;28;20151;-69
2022/11/18 10:12:22;;;;;;;20.10;18.90;;;;;;;11.08;61.78;100055.50;5044094;28;20036;-70
2022/11/18 10:15:10;;;;;;;18.95;17.83;;;;;;;11.07;61.68;100048.47;5047788;28;20398;-69
2022/11/18 10:18:00;;;;;;;21.17;19.85;;;;;;;11.06;61.95;100046.81;5053570;28;20101;-71
2022/11/18 10:20:30;;;;;;;19.58;18.48;;;;;;;11.07;61.86;100061.19;5063843;28;20025;-71
2022/11/18 10:23:15;;;;;;;19.60;18.50;;;;;;;11.07;61.91;100053.88;5041379;28;20029;-70
2022/11/18 10:25:41;;;;;;;21.98;20.60;;;;;;;11.07;61.74;100053.88;5031292;28;20083;-71
2022/11/18 10:28:28;;;;;;;21.30;20.10;;;;;;;11.08;61.91;100060.09;5036916;28;20037;-70
2022/11/18 10:30:53;;;;;;;19.60;18.38;;;;;;;11.08;61.71;100057.38;5043234;28;20803;-71
2022/11/18 10:33:24;;;;;;;19.13;17.88;;;;;;;11.09;61.93;100059.84;5047900;28;20469;-70
2022/11/18 10:35:57;;;;;;;20.63;19.33;;;;;;;11.09;61.88;100065.25;5033299;28;20040;-71
2022/11/18 10:38:22;;;;;;;20.23;19.02;;;;;;;11.11;61.91;100067.66;5037340;28;20056;-70
2022/11/18 10:40:51;;;;;;;19.60;18.40;;;;;;;11.10;61.90;100058.75;5046086;28;20466;-71
2022/11/18 10:43:42;;;;;;;18.77;17.63;;;;;;;11.11;61.99;100065.78;5031602;28;20029;-70
2022/11/18 10:46:23;;;;;;;20.92;19.70;;;;;;;11.12;61.91;100069.31;5023007;28;20049;-70
2022/11/18 10:49:09;;;;;;;18.70;17.65;;;;;;;11.12;62.03;100069.31;5030762;28;20131;-70
2022/11/18 10:51:35;;;;;;;22.33;20.58;;;;;;;11.12;62.08;100069.31;5034907;28;20037;-69
2022/11/18 10:54:24;;;;;;;18.90;17.83;;;;;;;11.13;61.87;100073.63;5044914;28;20136;-70
2022/11/18 10:56:50;;;;;;;22.38;20.63;;;;;;;11.14;61.94;100076.06;5047551;28;20060;-71
2022/11/18 10:59:40;;;;;;;18.75;17.55;;;;;;;11.15;61.97;100074.19;5036388;28;20024;-71
2022/11/18 11:02:29;;;;;;;20.20;18.83;;;;;;;11.15;61.88;100076.88;5038015;28;20112;-71
2022/11/18 11:04:56;;;;;;;20.52;19.30;;;;;;;11.15;61.93;100075.00;5032105;28;20101;-71
2022/11/18 11:07:30;;;;;;;19.50;18.17;;;;;;;11.16;62.00;100084.75;5035452;28;20033;-71
2022/11/18 11:10:04;;;;;;;22.25;20.92;;;;;;;11.16;61.77;100084.75;5034997;28;20029;-70
2022/11/18 11:12:32;;;;;;;19.35;17.95;;;;;;;11.18;61.86;100089.88;5036088;28;20044;-74
2022/11/18 11:15:15;;;;;;;21.02;19.73;;;;;;;11.18;62.17;100085.28;5032476;28;20037;-72
2022/11/18 11:20:42;;;;;;;21.05;19.85;;;;;;;11.18;62.05;100087.97;5032905;28;20107;-71
2022/11/18 11:23:12;;;;;;;24.92;23.23;;;;;;;11.20;62.18;100093.13;5046923;28;20457;-74
2022/11/18 11:25:56;;;;;;;25.33;23.73;;;;;;;11.20;62.26;100099.34;5031737;28;20367;-70
2022/11/18 11:28:29;;;;;;;24.20;22.48;;;;;;;11.23;62.15;100096.09;5032616;28;20033;-70
2022/11/18 11:31:20;;;;;;;23.95;22.40;;;;;;;11.24;62.20;100097.75;5032721;28;20091;-71
2022/11/18 11:33:57;;;;;;;25.13;23.23;;;;;;;11.25;62.13;100098.56;5042575;28;20424;-70
2022/11/18 11:36:32;;;;;;;23.60;22.20;;;;;;;11.25;62.26;100103.97;5032008;28;20091;-70
2022/11/18 11:39:12;;;;;;;25.58;23.98;;;;;;;11.26;62.21;100102.88;5031375;28;20022;-71
2022/11/18 11:42:14;;;;;;;25.05;23.38;;;;;;;11.26;62.35;100106.44;5034939;28;20035;-70
2022/11/18 11:45:04;;;;;;;25.48;23.88;;;;;;;11.27;62.31;100108.03;5046138;28;20037;-70